LIBD

Bari/Karol Wojtyła Airport

Airport
ICAO code
LIBD
IATA Code
BRI
Summary
ICAO Region
EUR
ICAO Territory
Location

Palese, Puglia

Serving
Bari
Elevation
177 ft
Coordinates
41° 8' 16" N , 16° 45' 41" E
KCC
Metar
Observation
LIBD 031920Z 20008KT CAVOK 06/04 Q1022
Station
Bari / Palese Macchie
Date/Time
2023-02-03 19:20:00
Wind direction
200°
Wind speed
08 kts
Lowest cloud amount
clouds and visibility OK
Temperature
6°C
Dew point
4°C
Humidity
86%
QNH
1022 hPa
Weather condition
n/a

International airport serving city of Bari, Italy.

Climatology

Dry-summer subtropical ”Mediterranean" climate (Köppen climate classification Csa) - characterized by hot, dry summers and mild winters. During the summer, subtropical high pressure cells dominate, making rainfall unlikely except for the occasional thunderstorm. In the winter, periodic storms bring rain (snow at higher elevations).

Runways

Designator Length Width Surface Rops
7/25 2440 45 ASP Yes/Yes

Airport map

Aerial View

SKYbrary Partners:

Safety knowledge contributed by: